Terminal Aerodrome Forecast
Issued by NWS Grand Forks, ND

Home | Current Version | Previous Version | Text Only | Print | Product List | Glossary Off
Versions: 1 2 3 4 5 6 7 8 9 10 11 12 13 14 15 16 17 18 19 20

493
FTUS43 KFGF 230520
TAFGFK
TAF
KGFK 230520Z 2306/2406 35015G23KT P6SM BKN010
      TEMPO 2306/2310 BKN006
     FM231200 34009KT P6SM OVC015
     FM231700 36010KT P6SM BKN020
     FM232000 02010KT P6SM OVC040
     FM240300 02009KT P6SM OVC030=

USA.gov is the U.S. government's official web portal to all federal, state and local government web resources and services.